createdAt,value
2018-03-26T00:01:11.807Z,2.73
2018-03-26T00:03:39.792Z,1.63
2018-03-26T00:06:07.753Z,5.40
2018-03-26T00:08:35.827Z,2.30
2018-03-26T00:11:03.771Z,3.13
2018-03-26T00:13:31.744Z,2.67
2018-03-26T00:15:59.739Z,2.30
2018-03-26T00:18:27.945Z,3.80
2018-03-26T00:20:55.814Z,2.10
2018-03-26T00:23:23.738Z,3.77
2018-03-26T00:25:51.749Z,1.37
2018-03-26T00:28:19.767Z,1.53
2018-03-26T00:30:47.730Z,1.63
2018-03-26T00:33:15.697Z,4.57
2018-03-26T00:35:43.711Z,2.20
2018-03-26T00:38:11.617Z,1.60
2018-03-26T00:40:39.559Z,1.90
2018-03-26T00:43:07.532Z,1.20
2018-03-26T00:45:35.533Z,1.13
2018-03-26T00:48:03.450Z,1.67
2018-03-26T00:50:31.394Z,0.80
2018-03-26T00:52:59.390Z,1.30
2018-03-26T00:55:27.226Z,0.90
2018-03-26T00:57:55.174Z,1.73
2018-03-26T01:00:23.167Z,1.10
2018-03-26T01:02:51.164Z,0.60
2018-03-26T01:05:19.232Z,3.10
2018-03-26T01:07:47.342Z,2.40
2018-03-26T01:10:15.338Z,2.43
2018-03-26T01:12:43.271Z,2.63
2018-03-26T01:15:11.231Z,2.00
2018-03-26T01:17:39.208Z,2.83
2018-03-26T01:20:07.466Z,2.07
2018-03-26T01:22:35.402Z,1.60
2018-03-26T01:25:03.380Z,1.77
2018-03-26T01:27:31.366Z,2.30
2018-03-26T01:29:59.293Z,1.37
2018-03-26T01:32:27.316Z,1.80
2018-03-26T01:34:55.272Z,2.30
2018-03-26T01:37:23.204Z,2.10
2018-03-26T01:39:51.177Z,2.33
2018-03-26T01:42:19.129Z,2.23
2018-03-26T01:44:47.106Z,2.70
2018-03-26T01:47:14.938Z,1.60
2018-03-26T01:49:42.898Z,3.80
2018-03-26T01:52:10.991Z,0.90
2018-03-26T01:54:38.894Z,1.40
2018-03-26T01:57:06.844Z,0.60
2018-03-26T01:59:34.815Z,0.83
2018-03-26T02:02:02.753Z,1.20
2018-03-26T02:04:30.668Z,0.73
2018-03-26T02:06:58.602Z,1.00
2018-03-26T02:09:26.575Z,0.73
2018-03-26T02:11:54.654Z,1.13
2018-03-26T02:14:22.614Z,1.17
2018-03-26T02:16:50.649Z,1.40
2018-03-26T02:19:18.678Z,1.73
2018-03-26T02:21:46.877Z,1.97
2018-03-26T02:24:14.814Z,2.60
2018-03-26T02:26:42.737Z,2.43
2018-03-26T02:29:10.734Z,3.00
2018-03-26T02:31:38.700Z,1.80
2018-03-26T02:34:06.669Z,1.93
2018-03-26T02:36:34.617Z,1.63
2018-03-26T02:39:02.611Z,2.03
2018-03-26T02:41:30.606Z,1.60
2018-03-26T02:43:58.578Z,1.20
2018-03-26T02:46:26.520Z,6.03
2018-03-26T02:48:54.549Z,4.30
2018-03-26T02:51:22.539Z,4.40
2018-03-26T02:53:50.479Z,5.50
2018-03-26T02:56:18.465Z,5.70
2018-03-26T02:58:46.430Z,4.30
2018-03-26T03:01:14.394Z,3.27
2018-03-26T03:03:42.314Z,4.47
2018-03-26T03:06:10.248Z,4.50
2018-03-26T03:08:38.223Z,4.20
2018-03-26T03:11:06.208Z,3.83
2018-03-26T03:13:34.121Z,4.93
2018-03-26T03:16:02.075Z,6.40
2018-03-26T03:18:30.001Z,4.70
2018-03-26T03:20:58.101Z,5.70
2018-03-26T03:23:26.289Z,7.07
2018-03-26T03:25:54.296Z,9.83
2018-03-26T03:28:22.298Z,6.50
2018-03-26T03:30:50.184Z,6.47
2018-03-26T03:33:18.150Z,18.33
2018-03-26T03:35:46.108Z,5.70
2018-03-26T03:38:14.095Z,6.37
2018-03-26T03:40:42.102Z,14.00
2018-03-26T03:43:09.973Z,9.17
2018-03-26T03:45:37.947Z,32.70
2018-03-26T03:48:05.936Z,32.20
2018-03-26T03:50:33.963Z,183.30
2018-03-26T03:53:01.895Z,29.43
2018-03-26T03:55:29.822Z,33.20
2018-03-26T03:57:57.793Z,25.73
2018-03-26T04:00:25.749Z,172.17
2018-03-26T04:02:53.782Z,126.37
2018-03-26T04:05:21.762Z,46.93
2018-03-26T04:07:49.756Z,110.97
2018-03-26T04:10:17.766Z,47.80
2018-03-26T04:12:45.683Z,80.60
2018-03-26T04:15:13.631Z,32.70
2018-03-26T04:17:41.553Z,164.97
2018-03-26T04:20:09.527Z,28.37
2018-03-26T04:22:37.442Z,40.90
2018-03-26T04:25:05.676Z,33.57
2018-03-26T04:27:33.568Z,44.90
2018-03-26T04:30:01.519Z,70.47
2018-03-26T04:32:29.454Z,93.57
2018-03-26T04:34:57.392Z,184.00
2018-03-26T04:37:25.351Z,126.50
2018-03-26T04:39:53.354Z,84.73
2018-03-26T04:42:21.326Z,56.47
2018-03-26T04:44:49.287Z,157.03
2018-03-26T04:47:17.287Z,90.93
2018-03-26T04:49:45.299Z,107.60
2018-03-26T04:52:13.262Z,144.00
2018-03-26T04:54:41.225Z,74.23
2018-03-26T04:57:09.165Z,106.23
2018-03-26T04:59:37.135Z,66.80
2018-03-26T05:02:05.188Z,35.83
2018-03-26T05:04:33.134Z,167.37
2018-03-26T05:07:01.023Z,98.03
2018-03-26T05:09:29.015Z,564.47
2018-03-26T05:11:57.006Z,54.37
2018-03-26T05:14:24.984Z,243.17
2018-03-26T05:16:52.962Z,123.07
2018-03-26T05:19:20.982Z,66.60
2018-03-26T05:21:48.945Z,75.83
2018-03-26T05:24:16.898Z,79.27
2018-03-26T05:26:45.226Z,155.70
2018-03-26T05:29:13.214Z,43.50
2018-03-26T05:31:41.251Z,8.27
2018-03-26T05:34:09.208Z,6.70
2018-03-26T05:36:37.216Z,7.03
2018-03-26T05:39:05.341Z,38.23
2018-03-26T05:41:33.301Z,16.90
2018-03-26T05:44:01.287Z,11.27
2018-03-26T05:46:29.259Z,5.17
2018-03-26T05:48:57.287Z,5.90
2018-03-26T05:51:25.222Z,7.60
2018-03-26T05:53:53.194Z,13.03
2018-03-26T05:56:21.165Z,11.63
2018-03-26T05:58:49.130Z,5.97
2018-03-26T06:01:17.131Z,6.20
2018-03-26T06:03:45.166Z,16.40
2018-03-26T06:06:13.164Z,11.20
2018-03-26T06:08:41.127Z,21.60
2018-03-26T06:11:09.258Z,30.37
2018-03-26T06:13:38.383Z,41.73
2018-03-26T06:16:07.298Z,46.00
2018-03-26T06:18:35.326Z,49.63
2018-03-26T06:21:03.401Z,48.97
2018-03-26T06:23:31.562Z,53.83
2018-03-26T06:25:59.714Z,54.40
2018-03-26T06:28:27.951Z,53.40
2018-03-26T06:30:56.020Z,55.53
2018-03-26T06:33:24.079Z,57.70
2018-03-26T06:35:51.994Z,51.13
2018-03-26T06:38:23.006Z,32.03
2018-03-26T06:40:51.077Z,24.83
2018-03-26T06:43:19.116Z,24.23
2018-03-26T06:45:47.120Z,25.50
2018-03-26T06:48:15.153Z,23.67
2018-03-26T06:50:43.198Z,21.47
2018-03-26T06:53:11.225Z,20.27
2018-03-26T06:55:39.275Z,15.00
2018-03-26T06:58:07.264Z,18.87
2018-03-26T07:00:35.269Z,10.33
2018-03-26T07:03:03.280Z,6.97
2018-03-26T07:05:31.266Z,7.57
2018-03-26T07:07:59.284Z,9.70
2018-03-26T07:10:27.322Z,28.60
2018-03-26T07:12:55.287Z,14.07
2018-03-26T07:15:23.312Z,9.60
2018-03-26T07:17:51.273Z,12.07
2018-03-26T07:20:19.324Z,13.57
2018-03-26T07:22:47.346Z,17.17
2018-03-26T07:25:15.389Z,11.10
2018-03-26T07:27:43.421Z,13.50
2018-03-26T07:30:11.843Z,27.60
2018-03-26T07:32:39.799Z,30.57
2018-03-26T07:35:07.781Z,18.20
2018-03-26T07:37:35.804Z,21.40
2018-03-26T07:40:03.931Z,12.67
2018-03-26T07:42:31.955Z,9.83
2018-03-26T07:44:59.974Z,20.03
2018-03-26T07:47:27.927Z,33.30
2018-03-26T07:49:56.000Z,19.73
2018-03-26T07:52:24.054Z,22.27
2018-03-26T07:54:52.079Z,44.60
2018-03-26T07:57:20.129Z,40.73
2018-03-26T07:59:48.166Z,44.10
2018-03-26T08:02:16.218Z,54.93
2018-03-26T08:04:44.716Z,52.80
2018-03-26T08:07:13.345Z,33.90
2018-03-26T08:09:41.910Z,33.47
2018-03-26T08:12:10.328Z,33.50
2018-03-26T08:14:38.672Z,34.13
2018-03-26T08:17:07.162Z,32.73
2018-03-26T08:19:35.484Z,30.77
2018-03-26T08:22:03.551Z,53.27
2018-03-26T08:24:31.531Z,54.33
2018-03-26T08:26:59.552Z,35.57
2018-03-26T08:29:27.572Z,39.97
2018-03-26T08:31:56.064Z,29.93
2018-03-26T08:34:24.088Z,21.20
2018-03-26T08:36:52.123Z,28.80
2018-03-26T08:39:20.039Z,32.83
2018-03-26T08:41:47.989Z,35.60
2018-03-26T08:44:16.005Z,24.57
2018-03-26T08:46:44.046Z,34.93
2018-03-26T08:49:12.173Z,33.83
2018-03-26T08:51:40.195Z,36.27
2018-03-26T08:54:08.258Z,54.63
2018-03-26T08:56:36.204Z,50.17
2018-03-26T08:59:04.175Z,60.80
2018-03-26T09:01:32.139Z,42.97
2018-03-26T09:04:00.132Z,48.93
2018-03-26T09:06:28.130Z,48.53
2018-03-26T09:08:56.119Z,45.07
2018-03-26T09:11:24.155Z,44.50
2018-03-26T09:13:52.195Z,40.97
2018-03-26T09:16:20.259Z,25.50
2018-03-26T09:18:48.269Z,30.30
2018-03-26T09:21:16.255Z,31.27
2018-03-26T09:23:44.268Z,39.33
2018-03-26T09:26:12.288Z,49.83
2018-03-26T09:28:40.308Z,44.77
2018-03-26T09:31:08.354Z,27.60
2018-03-26T09:33:36.744Z,24.13
2018-03-26T09:36:04.731Z,30.37
2018-03-26T09:38:32.808Z,18.30
2018-03-26T09:41:00.867Z,15.67
2018-03-26T09:43:28.894Z,13.93
2018-03-26T09:45:57.005Z,15.70
2018-03-26T09:48:24.937Z,12.80
2018-03-26T09:50:52.831Z,12.20
2018-03-26T09:53:20.888Z,14.40
2018-03-26T09:55:48.991Z,10.57
2018-03-26T09:58:16.942Z,8.03
2018-03-26T10:00:48.925Z,6.97
2018-03-26T10:03:16.882Z,5.60
2018-03-26T10:05:44.943Z,5.67
2018-03-26T10:08:12.923Z,6.63
2018-03-26T10:10:40.924Z,5.07
2018-03-26T10:13:08.922Z,4.93
2018-03-26T10:15:36.911Z,6.50
2018-03-26T10:18:04.913Z,4.27
2018-03-26T10:20:32.876Z,4.23
2018-03-26T10:23:00.856Z,4.63
2018-03-26T10:25:28.806Z,10.93
2018-03-26T10:27:56.847Z,7.73
2018-03-26T10:30:24.828Z,5.27
2018-03-26T10:32:52.848Z,4.43
2018-03-26T10:35:20.865Z,3.70
2018-03-26T10:37:48.842Z,18.43
2018-03-26T10:40:16.894Z,9.33
2018-03-26T10:42:44.934Z,11.10
2018-03-26T10:45:12.927Z,38.70
2018-03-26T10:47:40.882Z,6.77
2018-03-26T10:50:08.895Z,5.13
2018-03-26T10:52:36.822Z,9.13
2018-03-26T10:55:04.797Z,4.93
2018-03-26T10:57:32.804Z,6.23
2018-03-26T11:00:00.795Z,7.57
2018-03-26T11:02:28.815Z,10.20
2018-03-26T11:04:56.838Z,6.63
2018-03-26T11:07:26.149Z,11.37
2018-03-26T11:09:54.187Z,5.50
2018-03-26T11:12:22.248Z,6.47
2018-03-26T11:14:50.338Z,12.97
2018-03-26T11:17:18.388Z,10.50
2018-03-26T11:19:46.573Z,9.57
2018-03-26T11:22:14.686Z,12.47
2018-03-26T11:24:42.708Z,8.90
2018-03-26T11:27:10.795Z,14.73
2018-03-26T11:29:38.842Z,10.17
2018-03-26T11:32:06.875Z,17.70
2018-03-26T11:34:34.958Z,13.73
2018-03-26T11:37:03.348Z,16.70
2018-03-26T11:39:31.423Z,32.57
2018-03-26T11:41:59.487Z,16.63
2018-03-26T11:44:27.706Z,41.83
2018-03-26T11:46:55.742Z,25.43
2018-03-26T11:49:23.877Z,34.00
2018-03-26T11:51:51.906Z,22.97
2018-03-26T11:54:19.963Z,32.27
2018-03-26T11:56:48.090Z,40.17
2018-03-26T11:59:16.168Z,41.20
2018-03-26T12:01:44.286Z,41.30
2018-03-26T12:04:12.382Z,23.63
2018-03-26T12:06:40.490Z,28.83
2018-03-26T12:09:08.621Z,36.37
2018-03-26T12:11:36.670Z,42.30
2018-03-26T12:14:04.771Z,37.57
2018-03-26T12:16:32.832Z,28.10
2018-03-26T12:19:00.952Z,30.80
2018-03-26T12:21:29.141Z,32.03
2018-03-26T12:24:08.897Z,35.77
2018-03-26T12:26:36.975Z,45.60
2018-03-26T12:29:16.867Z,49.07
2018-03-26T12:31:44.912Z,34.87
2018-03-26T12:34:24.780Z,25.00
2018-03-26T12:36:52.910Z,41.30
2018-03-26T12:39:21.474Z,48.80
2018-03-26T12:41:49.875Z,62.20
2018-03-26T12:44:29.790Z,48.60
2018-03-26T12:46:57.831Z,29.47
2018-03-26T12:49:26.090Z,26.30
2018-03-26T12:52:06.147Z,35.17
2018-03-26T12:54:34.214Z,40.00
2018-03-26T12:57:14.016Z,33.67
2018-03-26T12:59:42.098Z,35.10
2018-03-26T13:02:22.758Z,54.47
2018-03-26T13:04:50.984Z,26.17
2018-03-26T13:07:19.813Z,39.57
2018-03-26T13:09:48.487Z,38.03
2018-03-26T13:12:17.680Z,46.57
2018-03-26T13:14:45.799Z,40.53
2018-03-26T13:17:13.943Z,24.70
2018-03-26T13:19:42.014Z,13.90
2018-03-26T13:22:10.186Z,4.63
2018-03-26T13:24:38.363Z,10.90
2018-03-26T13:27:06.402Z,15.57
2018-03-26T13:29:34.437Z,7.47
2018-03-26T13:32:02.519Z,73.00
2018-03-26T13:34:30.660Z,12.47
2018-03-26T13:36:58.735Z,24.23
2018-03-26T13:39:27.353Z,27.50
2018-03-26T13:41:55.510Z,35.53
2018-03-26T13:44:23.611Z,51.80
2018-03-26T13:46:51.707Z,36.60
2018-03-26T13:49:19.749Z,28.27
2018-03-26T13:51:47.971Z,48.87
2018-03-26T13:54:16.192Z,39.90
2018-03-26T13:56:44.311Z,43.50
2018-03-26T13:59:12.463Z,48.53
2018-03-26T14:01:40.574Z,37.20
2018-03-26T14:04:08.761Z,114.60
2018-03-26T14:06:36.871Z,25.03
2018-03-26T14:12:28.903Z,63.27
2018-03-26T14:15:09.570Z,91.17
2018-03-26T14:17:49.413Z,47.67
2018-03-26T14:20:17.565Z,65.80
2018-03-26T14:22:45.717Z,49.90
2018-03-26T14:25:13.836Z,53.80
2018-03-26T14:27:42.004Z,49.90
2018-03-26T14:30:10.101Z,56.33
2018-03-26T14:32:38.198Z,68.37
2018-03-26T14:38:16.525Z,55.83
2018-03-26T14:40:44.906Z,45.13
2018-03-26T14:43:13.131Z,48.23
2018-03-26T14:45:41.198Z,87.93
2018-03-26T14:48:09.292Z,82.23
2018-03-26T14:50:37.487Z,64.77
2018-03-26T14:53:05.531Z,58.40
2018-03-26T14:55:33.586Z,56.83
2018-03-26T14:58:01.692Z,54.70
2018-03-26T15:00:29.880Z,78.30
2018-03-26T15:02:57.970Z,100.90
2018-03-26T15:05:26.095Z,99.57
2018-03-26T15:07:54.183Z,93.13
2018-03-26T15:10:22.272Z,76.00
2018-03-26T15:12:50.366Z,78.97
2018-03-26T15:15:18.375Z,60.40
2018-03-26T15:17:46.490Z,47.50
2018-03-26T15:20:14.584Z,52.60
2018-03-26T15:22:42.692Z,96.83
2018-03-26T15:25:10.766Z,87.53
2018-03-26T15:27:38.887Z,77.73
2018-03-26T15:30:06.978Z,107.77
2018-03-26T15:32:35.018Z,132.47
2018-03-26T15:35:03.064Z,92.60
2018-03-26T15:37:31.242Z,107.93
2018-03-26T15:39:59.418Z,98.43
2018-03-26T15:42:27.927Z,87.50
2018-03-26T15:44:56.031Z,47.43
2018-03-26T15:47:24.103Z,52.77
2018-03-26T15:49:52.192Z,36.33
2018-03-26T15:52:20.245Z,62.90
2018-03-26T15:54:48.330Z,87.10
2018-03-26T15:57:16.365Z,75.53
2018-03-26T15:59:44.424Z,64.43
2018-03-26T16:02:11.947Z,107.57
2018-03-26T16:04:40.040Z,124.33
2018-03-26T16:07:08.138Z,125.00
2018-03-26T16:09:36.235Z,125.60
2018-03-26T16:12:04.453Z,120.03
2018-03-26T16:14:32.569Z,112.57
2018-03-26T16:17:00.664Z,91.70
2018-03-26T16:19:28.771Z,93.30
2018-03-26T16:21:56.895Z,112.67
2018-03-26T16:24:25.044Z,114.50
2018-03-26T16:26:53.233Z,121.77
2018-03-26T16:29:21.505Z,119.73
2018-03-26T16:31:49.605Z,119.07
2018-03-26T16:34:17.711Z,101.43
2018-03-26T16:36:45.744Z,150.50
2018-03-26T16:39:13.859Z,346.20
2018-03-26T16:41:48.227Z,767.17
2018-03-26T16:44:16.522Z,476.63
2018-03-26T16:46:44.592Z,254.20
2018-03-26T16:49:12.710Z,181.73
2018-03-26T16:51:40.799Z,178.30
2018-03-26T16:54:08.906Z,144.00
2018-03-26T16:56:37.014Z,138.27
2018-03-26T16:59:05.149Z,118.97
2018-03-26T17:01:33.242Z,106.43
2018-03-26T17:04:01.346Z,73.53
2018-03-26T17:06:29.359Z,85.87
2018-03-26T17:08:57.501Z,105.03
2018-03-26T17:11:25.642Z,82.40
2018-03-26T17:13:53.702Z,97.70
2018-03-26T17:16:21.724Z,71.00
2018-03-26T17:18:49.795Z,78.87
2018-03-26T17:21:17.855Z,68.67
2018-03-26T17:23:45.971Z,98.17
2018-03-26T17:26:14.117Z,76.37
2018-03-26T17:28:42.252Z,32.63
2018-03-26T17:31:10.367Z,55.10
2018-03-26T17:33:38.460Z,89.20
2018-03-26T17:36:06.571Z,66.30
2018-03-26T17:38:34.653Z,167.53
2018-03-26T17:41:02.726Z,110.07
2018-03-26T17:43:30.851Z,120.10
2018-03-26T17:45:59.156Z,125.30
2018-03-26T17:48:27.163Z,103.97
2018-03-26T17:50:55.212Z,125.40
2018-03-26T17:53:23.321Z,141.57
2018-03-26T17:55:51.424Z,112.17
2018-03-26T17:58:19.610Z,167.63
2018-03-26T18:00:47.656Z,181.93
2018-03-26T18:03:15.729Z,151.80
2018-03-26T18:05:43.797Z,142.80
2018-03-26T18:08:11.805Z,129.67
2018-03-26T18:10:39.909Z,145.17
2018-03-26T18:13:07.940Z,127.73
2018-03-26T18:15:36.024Z,135.23
2018-03-26T18:18:03.992Z,130.73
2018-03-26T18:20:32.071Z,90.20
2018-03-26T18:23:00.134Z,83.90
2018-03-26T18:25:28.308Z,110.60
2018-03-26T18:27:56.352Z,126.33
2018-03-26T18:30:24.446Z,126.20
2018-03-26T18:32:52.560Z,134.37
2018-03-26T18:35:20.631Z,113.47
2018-03-26T18:37:48.696Z,97.93
2018-03-26T18:40:16.877Z,72.10
2018-03-26T18:42:44.969Z,77.63
2018-03-26T18:45:13.194Z,81.40
2018-03-26T18:47:41.452Z,77.07
2018-03-26T18:50:09.554Z,84.17
2018-03-26T18:52:37.630Z,100.03
2018-03-26T18:55:05.700Z,98.60
2018-03-26T18:57:33.700Z,82.13
2018-03-26T19:00:01.788Z,81.33
2018-03-26T19:02:29.808Z,90.83
2018-03-26T19:04:57.872Z,68.93
2018-03-26T19:07:25.896Z,94.07
2018-03-26T19:09:53.962Z,90.37
2018-03-26T19:12:22.168Z,101.27
2018-03-26T19:14:50.244Z,70.33
2018-03-26T19:17:18.353Z,56.50
2018-03-26T19:19:46.460Z,46.43
2018-03-26T19:22:14.573Z,59.20
2018-03-26T19:24:42.668Z,56.57
2018-03-26T19:27:10.743Z,62.23
2018-03-26T19:29:38.785Z,52.20
2018-03-26T19:32:06.838Z,59.73
2018-03-26T19:34:34.939Z,89.70
2018-03-26T19:37:03.040Z,86.13
2018-03-26T19:39:31.157Z,66.03
2018-03-26T19:41:59.255Z,54.43
2018-03-26T19:44:27.303Z,42.40
2018-03-26T19:46:55.525Z,36.20
2018-03-26T19:49:24.973Z,36.10
2018-03-26T19:51:53.655Z,36.70
2018-03-26T19:54:21.662Z,32.50
2018-03-26T19:56:49.744Z,63.17
2018-03-26T19:59:17.786Z,58.20
2018-03-26T20:01:45.778Z,33.87
2018-03-26T20:04:13.883Z,31.97
2018-03-26T20:06:41.951Z,31.00
2018-03-26T20:09:10.083Z,57.53
2018-03-26T20:11:38.121Z,72.97
2018-03-26T20:14:06.177Z,70.63
2018-03-26T20:16:34.259Z,58.37
2018-03-26T20:19:02.330Z,70.27
2018-03-26T20:21:30.406Z,92.07
2018-03-26T20:23:58.426Z,110.97
2018-03-26T20:26:26.497Z,94.53
2018-03-26T20:28:54.498Z,65.40
2018-03-26T20:31:22.577Z,37.73
2018-03-26T20:33:50.681Z,50.07
2018-03-26T20:36:18.734Z,31.37
2018-03-26T20:38:46.831Z,34.63
2018-03-26T20:41:14.884Z,37.63
2018-03-26T20:43:42.956Z,26.77
2018-03-26T20:46:11.014Z,17.93
2018-03-26T20:48:39.256Z,19.53
2018-03-26T20:51:07.706Z,27.03
2018-03-26T20:53:35.726Z,32.40
2018-03-26T20:56:03.812Z,18.33
2018-03-26T20:58:31.875Z,15.77
2018-03-26T21:00:59.914Z,15.43
2018-03-26T21:03:27.996Z,21.50
2018-03-26T21:05:56.004Z,78.17
2018-03-26T21:08:24.172Z,30.70
2018-03-26T21:10:52.243Z,29.40
2018-03-26T21:13:20.348Z,31.17
2018-03-26T21:15:48.462Z,32.20
2018-03-26T21:18:16.517Z,39.37
2018-03-26T21:20:44.622Z,24.53
2018-03-26T21:23:12.646Z,23.37
2018-03-26T21:25:40.652Z,30.03
2018-03-26T21:28:08.683Z,35.00
2018-03-26T21:30:36.776Z,31.90
2018-03-26T21:33:04.858Z,26.47
2018-03-26T21:35:32.898Z,31.63
2018-03-26T21:38:01.012Z,36.13
2018-03-26T21:40:29.107Z,41.90
2018-03-26T21:42:57.259Z,44.17
2018-03-26T21:45:25.344Z,31.47
2018-03-26T21:47:53.492Z,30.47
2018-03-26T21:50:21.576Z,28.67
2018-03-26T21:52:49.983Z,52.37
2018-03-26T21:55:18.090Z,53.13
2018-03-26T21:57:46.137Z,36.27
2018-03-26T22:00:23.108Z,42.90
2018-03-26T22:02:51.147Z,23.93
2018-03-26T22:05:19.233Z,28.27
2018-03-26T22:07:47.231Z,32.73
2018-03-26T22:10:16.280Z,18.40
2018-03-26T22:12:44.347Z,17.27
2018-03-26T22:15:12.449Z,27.00
2018-03-26T22:17:40.556Z,11.33
2018-03-26T22:20:08.640Z,8.10
2018-03-26T22:22:36.678Z,10.10
2018-03-26T22:25:04.876Z,7.77
2018-03-26T22:27:32.996Z,4.23
2018-03-26T22:30:00.988Z,6.80
2018-03-26T22:32:29.027Z,7.80
2018-03-26T22:34:57.022Z,3.10
2018-03-26T22:37:25.035Z,18.03
2018-03-26T22:39:53.045Z,4.20
2018-03-26T22:42:21.110Z,16.40
2018-03-26T22:44:49.133Z,9.33
2018-03-26T22:47:17.264Z,3.67
2018-03-26T22:49:45.338Z,5.70
2018-03-26T22:52:13.457Z,6.43
2018-03-26T22:54:41.842Z,4.67
2018-03-26T22:57:09.821Z,6.27
2018-03-26T22:59:37.869Z,6.00
2018-03-26T23:02:05.906Z,4.03
2018-03-26T23:04:33.924Z,7.00
2018-03-26T23:07:01.994Z,4.30
2018-03-26T23:09:30.127Z,8.50
2018-03-26T23:11:58.229Z,8.00
2018-03-26T23:14:26.304Z,6.53
2018-03-26T23:16:54.372Z,10.97
2018-03-26T23:19:22.399Z,6.00
2018-03-26T23:21:50.462Z,4.10
2018-03-26T23:24:18.468Z,5.10
2018-03-26T23:26:46.507Z,5.60
2018-03-26T23:29:14.620Z,6.50
2018-03-26T23:31:42.679Z,4.30
2018-03-26T23:34:10.735Z,7.27
2018-03-26T23:36:38.797Z,4.23
2018-03-26T23:39:06.842Z,3.27
2018-03-26T23:41:34.846Z,3.10
2018-03-26T23:44:02.950Z,10.53
2018-03-26T23:46:30.980Z,3.67
2018-03-26T23:48:59.039Z,3.73
2018-03-26T23:51:27.118Z,6.37
2018-03-26T23:53:55.411Z,5.70
2018-03-26T23:56:23.855Z,8.93
2018-03-26T23:58:51.916Z,7.40
